sensor_id;sensor_type;location;lat;lon;timestamp;temperature;humidity
24466;DHT22;12633;50.852;5.676;2022-09-09T00:01:51;14.80;99.90
24466;DHT22;12633;50.852;5.676;2022-09-09T00:04:22;14.70;99.90
24466;DHT22;12633;50.852;5.676;2022-09-09T00:06:53;14.70;99.90
24466;DHT22;12633;50.852;5.676;2022-09-09T00:09:21;14.70;99.90
24466;DHT22;12633;50.852;5.676;2022-09-09T00:11:51;14.70;99.90
24466;DHT22;12633;50.852;5.676;2022-09-09T00:14:20;14.70;99.90
24466;DHT22;12633;50.852;5.676;2022-09-09T00:16:50;14.60;99.90
24466;DHT22;12633;50.852;5.676;2022-09-09T00:19:22;14.50;99.90
24466;DHT22;12633;50.852;5.676;2022-09-09T00:21:52;14.50;99.90
24466;DHT22;12633;50.852;5.676;2022-09-09T00:24:24;14.50;99.90
24466;DHT22;12633;50.852;5.676;2022-09-09T00:26:55;14.50;99.90
24466;DHT22;12633;50.852;5.676;2022-09-09T00:29:25;14.50;99.90
24466;DHT22;12633;50.852;5.676;2022-09-09T00:31:55;14.50;99.90
24466;DHT22;12633;50.852;5.676;2022-09-09T00:34:24;14.50;99.90
24466;DHT22;12633;50.852;5.676;2022-09-09T00:36:53;14.40;99.90
24466;DHT22;12633;50.852;5.676;2022-09-09T00:39:24;14.40;99.90
24466;DHT22;12633;50.852;5.676;2022-09-09T00:41:57;14.40;99.90
24466;DHT22;12633;50.852;5.676;2022-09-09T00:44:30;14.40;99.90
24466;DHT22;12633;50.852;5.676;2022-09-09T00:47:03;14.40;99.90
24466;DHT22;12633;50.852;5.676;2022-09-09T00:49:35;14.40;99.90
24466;DHT22;12633;50.852;5.676;2022-09-09T00:52:08;14.50;99.90
24466;DHT22;12633;50.852;5.676;2022-09-09T00:54:40;14.40;99.90
24466;DHT22;12633;50.852;5.676;2022-09-09T00:57:21;14.40;99.90
24466;DHT22;12633;50.852;5.676;2022-09-09T00:59:50;14.30;99.90
24466;DHT22;12633;50.852;5.676;2022-09-09T01:02:25;14.30;99.90
24466;DHT22;12633;50.852;5.676;2022-09-09T01:04:53;14.30;99.90
24466;DHT22;12633;50.852;5.676;2022-09-09T01:07:20;14.20;99.90
24466;DHT22;12633;50.852;5.676;2022-09-09T01:09:51;14.20;99.90
24466;DHT22;12633;50.852;5.676;2022-09-09T01:12:25;14.30;99.90
24466;DHT22;12633;50.852;5.676;2022-09-09T01:14:54;14.30;99.90
24466;DHT22;12633;50.852;5.676;2022-09-09T01:17:24;14.30;99.90
24466;DHT22;12633;50.852;5.676;2022-09-09T01:19:55;14.30;99.90
24466;DHT22;12633;50.852;5.676;2022-09-09T01:22:28;14.40;99.90
24466;DHT22;12633;50.852;5.676;2022-09-09T01:25:07;14.40;99.90
24466;DHT22;12633;50.852;5.676;2022-09-09T01:27:37;14.50;99.90
24466;DHT22;12633;50.852;5.676;2022-09-09T01:30:08;14.50;99.90
24466;DHT22;12633;50.852;5.676;2022-09-09T01:32:37;14.50;99.90
24466;DHT22;12633;50.852;5.676;2022-09-09T01:35:04;14.50;99.90
24466;DHT22;12633;50.852;5.676;2022-09-09T01:37:33;14.50;99.90
24466;DHT22;12633;50.852;5.676;2022-09-09T01:40:00;14.60;99.90
24466;DHT22;12633;50.852;5.676;2022-09-09T01:42:26;14.60;99.90
24466;DHT22;12633;50.852;5.676;2022-09-09T01:44:55;14.60;99.90
24466;DHT22;12633;50.852;5.676;2022-09-09T01:47:21;14.70;99.90
24466;DHT22;12633;50.852;5.676;2022-09-09T01:49:49;14.70;99.90
24466;DHT22;12633;50.852;5.676;2022-09-09T01:52:16;14.70;99.90
24466;DHT22;12633;50.852;5.676;2022-09-09T01:54:42;14.70;99.90
24466;DHT22;12633;50.852;5.676;2022-09-09T01:57:11;14.70;99.90
24466;DHT22;12633;50.852;5.676;2022-09-09T01:59:45;14.70;99.90
24466;DHT22;12633;50.852;5.676;2022-09-09T02:02:17;14.80;99.90
24466;DHT22;12633;50.852;5.676;2022-09-09T02:04:45;14.80;99.90
24466;DHT22;12633;50.852;5.676;2022-09-09T02:07:27;14.80;99.90
24466;DHT22;12633;50.852;5.676;2022-09-09T02:09:57;14.80;99.90
24466;DHT22;12633;50.852;5.676;2022-09-09T02:12:25;14.80;99.90
24466;DHT22;12633;50.852;5.676;2022-09-09T02:14:55;14.80;99.90
24466;DHT22;12633;50.852;5.676;2022-09-09T02:17:24;14.90;99.90
24466;DHT22;12633;50.852;5.676;2022-09-09T02:19:53;14.90;99.90
24466;DHT22;12633;50.852;5.676;2022-09-09T02:22:22;15.00;99.90
24466;DHT22;12633;50.852;5.676;2022-09-09T02:24:49;15.10;99.90
24466;DHT22;12633;50.852;5.676;2022-09-09T02:27:19;15.10;99.90
24466;DHT22;12633;50.852;5.676;2022-09-09T02:29:47;15.10;99.90
24466;DHT22;12633;50.852;5.676;2022-09-09T02:32:16;15.10;99.90
24466;DHT22;12633;50.852;5.676;2022-09-09T02:34:46;15.10;99.90
24466;DHT22;12633;50.852;5.676;2022-09-09T02:37:14;15.00;99.90
24466;DHT22;12633;50.852;5.676;2022-09-09T02:39:42;15.00;99.90
24466;DHT22;12633;50.852;5.676;2022-09-09T02:42:09;15.00;99.90
24466;DHT22;12633;50.852;5.676;2022-09-09T02:44:36;15.00;99.90
24466;DHT22;12633;50.852;5.676;2022-09-09T02:47:07;15.00;99.90
24466;DHT22;12633;50.852;5.676;2022-09-09T02:49:40;15.00;99.90
24466;DHT22;12633;50.852;5.676;2022-09-09T02:52:13;14.90;99.90
24466;DHT22;12633;50.852;5.676;2022-09-09T02:54:40;14.90;99.90
24466;DHT22;12633;50.852;5.676;2022-09-09T02:57:10;14.80;99.90
24466;DHT22;12633;50.852;5.676;2022-09-09T02:59:37;14.80;99.90
24466;DHT22;12633;50.852;5.676;2022-09-09T03:02:05;14.80;99.90
24466;DHT22;12633;50.852;5.676;2022-09-09T03:04:32;14.80;99.90
24466;DHT22;12633;50.852;5.676;2022-09-09T03:06:59;14.90;99.90
24466;DHT22;12633;50.852;5.676;2022-09-09T03:09:27;14.90;99.90
24466;DHT22;12633;50.852;5.676;2022-09-09T03:11:54;14.80;99.90
24466;DHT22;12633;50.852;5.676;2022-09-09T03:14:21;14.90;99.90
24466;DHT22;12633;50.852;5.676;2022-09-09T03:16:50;14.90;99.90
24466;DHT22;12633;50.852;5.676;2022-09-09T03:19:17;14.80;99.90
24466;DHT22;12633;50.852;5.676;2022-09-09T03:21:44;14.80;99.90
24466;DHT22;12633;50.852;5.676;2022-09-09T03:24:11;14.80;99.90
24466;DHT22;12633;50.852;5.676;2022-09-09T03:26:39;14.80;99.90
24466;DHT22;12633;50.852;5.676;2022-09-09T03:29:06;14.80;99.90
24466;DHT22;12633;50.852;5.676;2022-09-09T03:31:33;14.80;99.90
24466;DHT22;12633;50.852;5.676;2022-09-09T03:34:01;14.80;99.90
24466;DHT22;12633;50.852;5.676;2022-09-09T03:36:28;14.80;99.90
24466;DHT22;12633;50.852;5.676;2022-09-09T03:38:55;14.90;99.90
24466;DHT22;12633;50.852;5.676;2022-09-09T03:41:23;14.90;99.90
24466;DHT22;12633;50.852;5.676;2022-09-09T03:43:52;14.90;99.90
24466;DHT22;12633;50.852;5.676;2022-09-09T03:46:19;15.00;99.90
24466;DHT22;12633;50.852;5.676;2022-09-09T03:48:45;15.00;99.90
24466;DHT22;12633;50.852;5.676;2022-09-09T03:51:12;15.00;99.90
24466;DHT22;12633;50.852;5.676;2022-09-09T03:53:40;15.00;99.90
24466;DHT22;12633;50.852;5.676;2022-09-09T03:56:07;15.10;99.90
24466;DHT22;12633;50.852;5.676;2022-09-09T03:58:35;15.10;99.90
24466;DHT22;12633;50.852;5.676;2022-09-09T04:01:03;15.10;99.90
24466;DHT22;12633;50.852;5.676;2022-09-09T04:03:31;15.10;99.90
24466;DHT22;12633;50.852;5.676;2022-09-09T04:05:59;15.10;99.90
24466;DHT22;12633;50.852;5.676;2022-09-09T04:08:27;15.10;99.90
24466;DHT22;12633;50.852;5.676;2022-09-09T04:10:55;15.30;99.90
24466;DHT22;12633;50.852;5.676;2022-09-09T04:13:23;15.30;99.90
24466;DHT22;12633;50.852;5.676;2022-09-09T04:15:51;15.30;99.90
24466;DHT22;12633;50.852;5.676;2022-09-09T04:18:19;15.30;99.90
24466;DHT22;12633;50.852;5.676;2022-09-09T04:20:46;15.30;99.90
24466;DHT22;12633;50.852;5.676;2022-09-09T04:23:14;15.40;99.90
24466;DHT22;12633;50.852;5.676;2022-09-09T04:25:43;15.40;99.90
24466;DHT22;12633;50.852;5.676;2022-09-09T04:28:10;15.40;99.90
24466;DHT22;12633;50.852;5.676;2022-09-09T04:30:37;15.40;99.90
24466;DHT22;12633;50.852;5.676;2022-09-09T04:33:05;15.40;99.90
24466;DHT22;12633;50.852;5.676;2022-09-09T04:35:33;15.30;99.90
24466;DHT22;12633;50.852;5.676;2022-09-09T04:38:00;15.30;99.90
24466;DHT22;12633;50.852;5.676;2022-09-09T04:40:28;15.30;99.90
24466;DHT22;12633;50.852;5.676;2022-09-09T04:42:54;15.20;99.90
24466;DHT22;12633;50.852;5.676;2022-09-09T04:45:21;15.30;99.90
24466;DHT22;12633;50.852;5.676;2022-09-09T04:47:48;15.30;99.90
24466;DHT22;12633;50.852;5.676;2022-09-09T04:50:15;15.30;99.90
24466;DHT22;12633;50.852;5.676;2022-09-09T04:52:43;15.30;99.90
24466;DHT22;12633;50.852;5.676;2022-09-09T04:55:10;15.30;99.90
24466;DHT22;12633;50.852;5.676;2022-09-09T04:57:38;15.40;99.90
24466;DHT22;12633;50.852;5.676;2022-09-09T05:00:05;15.40;99.90
24466;DHT22;12633;50.852;5.676;2022-09-09T05:02:32;15.40;99.90
24466;DHT22;12633;50.852;5.676;2022-09-09T05:04:59;15.40;99.90
24466;DHT22;12633;50.852;5.676;2022-09-09T05:07:26;15.40;99.90
24466;DHT22;12633;50.852;5.676;2022-09-09T05:09:55;15.40;99.90
24466;DHT22;12633;50.852;5.676;2022-09-09T05:12:22;15.30;99.90
24466;DHT22;12633;50.852;5.676;2022-09-09T05:14:51;15.30;99.90
24466;DHT22;12633;50.852;5.676;2022-09-09T05:17:18;15.20;99.90
24466;DHT22;12633;50.852;5.676;2022-09-09T05:19:44;15.20;99.90
24466;DHT22;12633;50.852;5.676;2022-09-09T05:22:11;15.20;99.90
24466;DHT22;12633;50.852;5.676;2022-09-09T05:24:38;15.20;99.90
24466;DHT22;12633;50.852;5.676;2022-09-09T05:27:06;15.10;99.90
24466;DHT22;12633;50.852;5.676;2022-09-09T05:29:36;15.10;99.90
24466;DHT22;12633;50.852;5.676;2022-09-09T05:32:03;15.00;99.90
24466;DHT22;12633;50.852;5.676;2022-09-09T05:34:29;15.10;99.90
24466;DHT22;12633;50.852;5.676;2022-09-09T05:36:56;15.10;99.90
24466;DHT22;12633;50.852;5.676;2022-09-09T05:39:23;15.10;99.90
24466;DHT22;12633;50.852;5.676;2022-09-09T05:41:50;15.10;99.90
24466;DHT22;12633;50.852;5.676;2022-09-09T05:44:18;15.20;99.90
24466;DHT22;12633;50.852;5.676;2022-09-09T05:46:45;15.20;99.90
24466;DHT22;12633;50.852;5.676;2022-09-09T05:49:12;15.30;99.90
24466;DHT22;12633;50.852;5.676;2022-09-09T05:51:41;15.30;99.90
24466;DHT22;12633;50.852;5.676;2022-09-09T05:54:08;15.30;99.90
24466;DHT22;12633;50.852;5.676;2022-09-09T05:56:35;15.30;99.90
24466;DHT22;12633;50.852;5.676;2022-09-09T05:59:01;15.40;99.90
24466;DHT22;12633;50.852;5.676;2022-09-09T06:01:31;15.50;99.90
24466;DHT22;12633;50.852;5.676;2022-09-09T06:03:58;15.70;99.90
24466;DHT22;12633;50.852;5.676;2022-09-09T06:06:26;15.70;99.90
24466;DHT22;12633;50.852;5.676;2022-09-09T06:08:55;15.80;99.90
24466;DHT22;12633;50.852;5.676;2022-09-09T06:11:23;15.90;99.90
24466;DHT22;12633;50.852;5.676;2022-09-09T06:13:50;15.90;99.90
24466;DHT22;12633;50.852;5.676;2022-09-09T06:16:20;15.90;99.90
24466;DHT22;12633;50.852;5.676;2022-09-09T06:18:49;15.90;99.90
24466;DHT22;12633;50.852;5.676;2022-09-09T06:21:17;15.90;99.90
24466;DHT22;12633;50.852;5.676;2022-09-09T06:23:44;15.90;99.90
24466;DHT22;12633;50.852;5.676;2022-09-09T06:26:13;15.90;99.90
24466;DHT22;12633;50.852;5.676;2022-09-09T06:28:40;15.90;99.90
24466;DHT22;12633;50.852;5.676;2022-09-09T06:31:08;15.90;99.90
24466;DHT22;12633;50.852;5.676;2022-09-09T06:33:36;16.00;99.90
24466;DHT22;12633;50.852;5.676;2022-09-09T06:36:09;16.10;99.90
24466;DHT22;12633;50.852;5.676;2022-09-09T06:38:37;16.10;99.90
24466;DHT22;12633;50.852;5.676;2022-09-09T06:41:04;16.10;99.90
24466;DHT22;12633;50.852;5.676;2022-09-09T06:43:31;16.10;99.90
24466;DHT22;12633;50.852;5.676;2022-09-09T06:45:58;16.10;99.90
24466;DHT22;12633;50.852;5.676;2022-09-09T06:48:25;16.20;99.90
24466;DHT22;12633;50.852;5.676;2022-09-09T06:51:00;16.30;99.90
24466;DHT22;12633;50.852;5.676;2022-09-09T06:53:28;16.40;99.90
24466;DHT22;12633;50.852;5.676;2022-09-09T06:55:55;16.40;99.90
24466;DHT22;12633;50.852;5.676;2022-09-09T06:58:22;16.50;99.90
24466;DHT22;12633;50.852;5.676;2022-09-09T07:00:49;16.70;99.90
24466;DHT22;12633;50.852;5.676;2022-09-09T07:03:15;17.00;99.90
24466;DHT22;12633;50.852;5.676;2022-09-09T07:05:42;17.20;99.90
24466;DHT22;12633;50.852;5.676;2022-09-09T07:08:10;17.00;99.90
24466;DHT22;12633;50.852;5.676;2022-09-09T07:10:38;17.10;99.90
24466;DHT22;12633;50.852;5.676;2022-09-09T07:13:05;17.70;99.90
24466;DHT22;12633;50.852;5.676;2022-09-09T07:15:33;18.10;99.90
24466;DHT22;12633;50.852;5.676;2022-09-09T07:18:00;18.40;99.90
24466;DHT22;12633;50.852;5.676;2022-09-09T07:20:27;18.50;99.90
24466;DHT22;12633;50.852;5.676;2022-09-09T07:22:54;18.70;99.90
24466;DHT22;12633;50.852;5.676;2022-09-09T07:25:21;18.60;99.90
24466;DHT22;12633;50.852;5.676;2022-09-09T07:27:50;18.70;99.90
24466;DHT22;12633;50.852;5.676;2022-09-09T07:30:16;18.70;99.90
24466;DHT22;12633;50.852;5.676;2022-09-09T07:32:44;19.00;99.90
24466;DHT22;12633;50.852;5.676;2022-09-09T07:35:11;19.10;99.90
24466;DHT22;12633;50.852;5.676;2022-09-09T07:37:38;19.30;99.90
24466;DHT22;12633;50.852;5.676;2022-09-09T07:40:06;19.70;99.90
24466;DHT22;12633;50.852;5.676;2022-09-09T07:42:33;20.20;99.90
24466;DHT22;12633;50.852;5.676;2022-09-09T07:45:02;19.80;99.90
24466;DHT22;12633;50.852;5.676;2022-09-09T07:47:29;19.80;99.90
24466;DHT22;12633;50.852;5.676;2022-09-09T07:49:56;19.40;99.90
24466;DHT22;12633;50.852;5.676;2022-09-09T07:52:24;19.10;99.90
24466;DHT22;12633;50.852;5.676;2022-09-09T07:54:51;18.60;99.90
24466;DHT22;12633;50.852;5.676;2022-09-09T07:57:17;18.40;99.90
24466;DHT22;12633;50.852;5.676;2022-09-09T07:59:44;18.10;99.90
24466;DHT22;12633;50.852;5.676;2022-09-09T08:02:13;18.00;99.90
24466;DHT22;12633;50.852;5.676;2022-09-09T08:04:40;17.80;99.90
24466;DHT22;12633;50.852;5.676;2022-09-09T08:07:07;17.70;99.90
24466;DHT22;12633;50.852;5.676;2022-09-09T08:09:34;17.70;99.90
24466;DHT22;12633;50.852;5.676;2022-09-09T08:12:01;17.60;99.90
24466;DHT22;12633;50.852;5.676;2022-09-09T08:14:27;17.90;99.90
24466;DHT22;12633;50.852;5.676;2022-09-09T08:16:55;18.50;99.90
